sensor_id;sensor_type;location;lat;lon;timestamp;P1;durP1;ratioP1;P2;durP2;ratioP2
14528;SDS011;7351;51.194;4.098;2022-12-17T00:02:02;84.07;;;70.40;;
14528;SDS011;7351;51.194;4.098;2022-12-17T00:04:51;81.30;;;66.87;;
14528;SDS011;7351;51.194;4.098;2022-12-17T00:07:36;76.67;;;67.30;;
14528;SDS011;7351;51.194;4.098;2022-12-17T00:10:22;100.63;;;89.60;;
14528;SDS011;7351;51.194;4.098;2022-12-17T00:13:15;95.13;;;84.27;;
14528;SDS011;7351;51.194;4.098;2022-12-17T00:16:00;98.07;;;87.43;;
14528;SDS011;7351;51.194;4.098;2022-12-17T00:18:45;94.10;;;84.87;;
14528;SDS011;7351;51.194;4.098;2022-12-17T00:21:29;100.97;;;86.43;;
14528;SDS011;7351;51.194;4.098;2022-12-17T00:24:14;100.90;;;85.37;;
14528;SDS011;7351;51.194;4.098;2022-12-17T00:26:59;85.53;;;76.37;;
14528;SDS011;7351;51.194;4.098;2022-12-17T00:29:44;110.73;;;89.20;;
14528;SDS011;7351;51.194;4.098;2022-12-17T00:32:28;105.27;;;90.37;;
14528;SDS011;7351;51.194;4.098;2022-12-17T00:40:43;127.43;;;106.43;;
14528;SDS011;7351;51.194;4.098;2022-12-17T00:43:34;86.47;;;76.07;;
14528;SDS011;7351;51.194;4.098;2022-12-17T00:46:18;92.87;;;78.43;;
14528;SDS011;7351;51.194;4.098;2022-12-17T00:49:02;100.73;;;87.70;;
14528;SDS011;7351;51.194;4.098;2022-12-17T00:51:43;92.07;;;82.40;;
14528;SDS011;7351;51.194;4.098;2022-12-17T00:54:27;83.00;;;74.07;;
14528;SDS011;7351;51.194;4.098;2022-12-17T00:57:12;88.00;;;78.60;;
14528;SDS011;7351;51.194;4.098;2022-12-17T00:59:57;90.47;;;80.70;;
14528;SDS011;7351;51.194;4.098;2022-12-17T01:02:42;121.40;;;106.53;;
14528;SDS011;7351;51.194;4.098;2022-12-17T01:05:26;122.73;;;103.63;;
14528;SDS011;7351;51.194;4.098;2022-12-17T01:08:13;81.40;;;72.70;;
14528;SDS011;7351;51.194;4.098;2022-12-17T01:11:05;72.10;;;63.27;;
14528;SDS011;7351;51.194;4.098;2022-12-17T01:13:50;79.57;;;70.77;;
14528;SDS011;7351;51.194;4.098;2022-12-17T01:16:37;88.70;;;79.37;;
14528;SDS011;7351;51.194;4.098;2022-12-17T01:19:22;95.37;;;85.30;;
14528;SDS011;7351;51.194;4.098;2022-12-17T01:25:28;111.80;;;99.73;;
14528;SDS011;7351;51.194;4.098;2022-12-17T01:28:19;106.13;;;94.50;;
14528;SDS011;7351;51.194;4.098;2022-12-17T01:31:06;86.27;;;75.03;;
14528;SDS011;7351;51.194;4.098;2022-12-17T01:33:52;83.83;;;74.10;;
14528;SDS011;7351;51.194;4.098;2022-12-17T01:36:38;87.03;;;77.67;;
14528;SDS011;7351;51.194;4.098;2022-12-17T01:39:22;90.47;;;80.90;;
14528;SDS011;7351;51.194;4.098;2022-12-17T01:42:07;81.53;;;72.67;;
14528;SDS011;7351;51.194;4.098;2022-12-17T01:44:55;85.03;;;75.93;;
14528;SDS011;7351;51.194;4.098;2022-12-17T01:47:41;78.13;;;70.23;;
14528;SDS011;7351;51.194;4.098;2022-12-17T01:50:31;81.07;;;72.00;;
14528;SDS011;7351;51.194;4.098;2022-12-17T01:53:20;81.47;;;72.53;;
14528;SDS011;7351;51.194;4.098;2022-12-17T01:56:08;74.93;;;66.77;;
14528;SDS011;7351;51.194;4.098;2022-12-17T01:59:01;76.40;;;68.37;;
14528;SDS011;7351;51.194;4.098;2022-12-17T02:01:47;77.20;;;68.90;;
14528;SDS011;7351;51.194;4.098;2022-12-17T02:04:31;72.93;;;64.83;;
14528;SDS011;7351;51.194;4.098;2022-12-17T02:07:23;99.97;;;80.07;;
14528;SDS011;7351;51.194;4.098;2022-12-17T02:10:24;88.73;;;76.23;;
14528;SDS011;7351;51.194;4.098;2022-12-17T02:13:13;79.07;;;68.00;;
14528;SDS011;7351;51.194;4.098;2022-12-17T02:16:04;74.97;;;65.70;;
14528;SDS011;7351;51.194;4.098;2022-12-17T02:18:56;71.53;;;64.50;;
14528;SDS011;7351;51.194;4.098;2022-12-17T02:21:45;80.23;;;71.67;;
14528;SDS011;7351;51.194;4.098;2022-12-17T02:24:40;79.77;;;69.90;;
14528;SDS011;7351;51.194;4.098;2022-12-17T02:27:33;86.13;;;71.47;;
14528;SDS011;7351;51.194;4.098;2022-12-17T02:30:23;88.97;;;79.33;;
14528;SDS011;7351;51.194;4.098;2022-12-17T02:33:08;94.50;;;79.80;;
14528;SDS011;7351;51.194;4.098;2022-12-17T02:35:56;88.33;;;78.53;;
14528;SDS011;7351;51.194;4.098;2022-12-17T02:41:51;92.33;;;78.37;;
14528;SDS011;7351;51.194;4.098;2022-12-17T02:44:40;91.63;;;81.07;;
14528;SDS011;7351;51.194;4.098;2022-12-17T02:50:31;99.53;;;81.33;;
14528;SDS011;7351;51.194;4.098;2022-12-17T02:53:15;91.23;;;77.80;;
14528;SDS011;7351;51.194;4.098;2022-12-17T02:56:06;99.53;;;81.97;;
14528;SDS011;7351;51.194;4.098;2022-12-17T02:58:51;125.07;;;104.40;;
14528;SDS011;7351;51.194;4.098;2022-12-17T03:01:36;134.73;;;103.13;;
14528;SDS011;7351;51.194;4.098;2022-12-17T03:04:20;106.97;;;90.47;;
14528;SDS011;7351;51.194;4.098;2022-12-17T03:07:05;107.70;;;91.93;;
14528;SDS011;7351;51.194;4.098;2022-12-17T03:09:49;111.53;;;92.97;;
14528;SDS011;7351;51.194;4.098;2022-12-17T03:12:34;99.00;;;88.27;;
14528;SDS011;7351;51.194;4.098;2022-12-17T03:15:18;101.73;;;85.70;;
14528;SDS011;7351;51.194;4.098;2022-12-17T03:18:15;98.00;;;84.80;;
14528;SDS011;7351;51.194;4.098;2022-12-17T03:21:00;106.83;;;88.60;;
14528;SDS011;7351;51.194;4.098;2022-12-17T03:23:44;96.73;;;83.27;;
14528;SDS011;7351;51.194;4.098;2022-12-17T03:26:29;84.43;;;73.23;;
14528;SDS011;7351;51.194;4.098;2022-12-17T03:29:14;81.50;;;71.27;;
14528;SDS011;7351;51.194;4.098;2022-12-17T03:31:58;93.83;;;74.33;;
14528;SDS011;7351;51.194;4.098;2022-12-17T03:34:48;73.83;;;66.03;;
14528;SDS011;7351;51.194;4.098;2022-12-17T03:37:32;72.67;;;65.00;;
14528;SDS011;7351;51.194;4.098;2022-12-17T03:40:16;70.63;;;63.33;;
14528;SDS011;7351;51.194;4.098;2022-12-17T03:46:19;71.83;;;62.73;;
14528;SDS011;7351;51.194;4.098;2022-12-17T03:49:03;68.67;;;61.30;;
14528;SDS011;7351;51.194;4.098;2022-12-17T03:51:50;70.70;;;63.13;;
14528;SDS011;7351;51.194;4.098;2022-12-17T03:54:34;65.97;;;59.10;;
14528;SDS011;7351;51.194;4.098;2022-12-17T03:57:18;65.27;;;58.37;;
14528;SDS011;7351;51.194;4.098;2022-12-17T04:00:04;63.20;;;56.90;;
14528;SDS011;7351;51.194;4.098;2022-12-17T04:02:49;64.07;;;55.70;;
14528;SDS011;7351;51.194;4.098;2022-12-17T04:05:33;68.90;;;60.47;;
14528;SDS011;7351;51.194;4.098;2022-12-17T04:08:19;64.67;;;58.40;;
14528;SDS011;7351;51.194;4.098;2022-12-17T04:14:06;61.63;;;55.73;;
14528;SDS011;7351;51.194;4.098;2022-12-17T04:16:51;60.23;;;54.13;;
14528;SDS011;7351;51.194;4.098;2022-12-17T04:19:47;56.10;;;50.93;;
14528;SDS011;7351;51.194;4.098;2022-12-17T04:22:46;56.90;;;51.57;;
14528;SDS011;7351;51.194;4.098;2022-12-17T04:28:46;59.97;;;54.00;;
14528;SDS011;7351;51.194;4.098;2022-12-17T04:34:34;57.93;;;52.17;;
14528;SDS011;7351;51.194;4.098;2022-12-17T04:37:19;57.87;;;52.07;;
14528;SDS011;7351;51.194;4.098;2022-12-17T04:40:04;56.77;;;50.63;;
14528;SDS011;7351;51.194;4.098;2022-12-17T04:42:50;53.93;;;48.63;;
14528;SDS011;7351;51.194;4.098;2022-12-17T04:45:34;56.10;;;48.83;;
14528;SDS011;7351;51.194;4.098;2022-12-17T04:48:20;52.03;;;47.10;;
14528;SDS011;7351;51.194;4.098;2022-12-17T04:51:04;54.87;;;49.13;;
14528;SDS011;7351;51.194;4.098;2022-12-17T04:53:51;59.10;;;53.73;;
14528;SDS011;7351;51.194;4.098;2022-12-17T04:56:35;60.33;;;54.80;;
14528;SDS011;7351;51.194;4.098;2022-12-17T04:59:21;62.30;;;55.77;;
14528;SDS011;7351;51.194;4.098;2022-12-17T05:02:05;59.97;;;53.87;;
14528;SDS011;7351;51.194;4.098;2022-12-17T05:04:50;59.23;;;53.30;;
14528;SDS011;7351;51.194;4.098;2022-12-17T05:07:34;56.23;;;50.53;;
14528;SDS011;7351;51.194;4.098;2022-12-17T05:10:18;60.93;;;54.80;;
14528;SDS011;7351;51.194;4.098;2022-12-17T05:13:03;59.37;;;53.67;;
14528;SDS011;7351;51.194;4.098;2022-12-17T05:15:48;60.10;;;53.80;;
14528;SDS011;7351;51.194;4.098;2022-12-17T05:18:38;56.97;;;51.23;;
14528;SDS011;7351;51.194;4.098;2022-12-17T05:21:25;57.13;;;51.27;;
14528;SDS011;7351;51.194;4.098;2022-12-17T05:24:09;58.93;;;52.87;;
14528;SDS011;7351;51.194;4.098;2022-12-17T05:26:53;58.67;;;52.93;;
14528;SDS011;7351;51.194;4.098;2022-12-17T05:29:38;59.80;;;51.37;;
14528;SDS011;7351;51.194;4.098;2022-12-17T05:32:23;56.17;;;50.33;;
14528;SDS011;7351;51.194;4.098;2022-12-17T05:35:08;62.53;;;52.93;;
14528;SDS011;7351;51.194;4.098;2022-12-17T05:37:52;61.70;;;53.30;;
14528;SDS011;7351;51.194;4.098;2022-12-17T05:40:37;58.33;;;52.07;;
14528;SDS011;7351;51.194;4.098;2022-12-17T05:43:21;60.07;;;53.50;;
14528;SDS011;7351;51.194;4.098;2022-12-17T05:49:11;53.07;;;47.70;;
14528;SDS011;7351;51.194;4.098;2022-12-17T05:51:55;55.43;;;50.30;;
14528;SDS011;7351;51.194;4.098;2022-12-17T05:54:40;55.87;;;49.83;;
14528;SDS011;7351;51.194;4.098;2022-12-17T05:57:24;54.83;;;48.80;;
14528;SDS011;7351;51.194;4.098;2022-12-17T06:00:09;54.47;;;48.47;;
14528;SDS011;7351;51.194;4.098;2022-12-17T06:02:57;57.27;;;51.33;;
14528;SDS011;7351;51.194;4.098;2022-12-17T06:09:05;52.07;;;46.80;;
14528;SDS011;7351;51.194;4.098;2022-12-17T06:11:50;53.70;;;48.23;;
14528;SDS011;7351;51.194;4.098;2022-12-17T06:14:34;51.50;;;46.47;;
14528;SDS011;7351;51.194;4.098;2022-12-17T06:17:26;51.93;;;46.57;;
14528;SDS011;7351;51.194;4.098;2022-12-17T06:20:11;51.37;;;46.07;;
14528;SDS011;7351;51.194;4.098;2022-12-17T06:22:58;55.13;;;49.43;;
14528;SDS011;7351;51.194;4.098;2022-12-17T06:25:44;47.73;;;43.20;;
14528;SDS011;7351;51.194;4.098;2022-12-17T06:28:28;50.67;;;45.50;;
14528;SDS011;7351;51.194;4.098;2022-12-17T06:31:13;51.67;;;46.53;;
14528;SDS011;7351;51.194;4.098;2022-12-17T06:33:59;52.03;;;42.57;;
14528;SDS011;7351;51.194;4.098;2022-12-17T06:36:43;50.67;;;45.40;;
14528;SDS011;7351;51.194;4.098;2022-12-17T06:39:28;54.93;;;49.60;;
14528;SDS011;7351;51.194;4.098;2022-12-17T06:42:14;57.93;;;52.10;;
14528;SDS011;7351;51.194;4.098;2022-12-17T06:44:58;49.03;;;43.73;;
14528;SDS011;7351;51.194;4.098;2022-12-17T06:47:42;48.57;;;43.43;;
14528;SDS011;7351;51.194;4.098;2022-12-17T06:50:27;48.47;;;43.33;;
14528;SDS011;7351;51.194;4.098;2022-12-17T06:53:11;50.10;;;44.17;;
14528;SDS011;7351;51.194;4.098;2022-12-17T06:55:55;50.20;;;44.93;;
14528;SDS011;7351;51.194;4.098;2022-12-17T06:58:42;50.97;;;45.47;;
14528;SDS011;7351;51.194;4.098;2022-12-17T07:01:27;55.10;;;49.17;;
14528;SDS011;7351;51.194;4.098;2022-12-17T07:04:11;49.90;;;44.63;;
14528;SDS011;7351;51.194;4.098;2022-12-17T07:06:59;54.03;;;48.70;;
14528;SDS011;7351;51.194;4.098;2022-12-17T07:09:43;55.20;;;49.27;;
14528;SDS011;7351;51.194;4.098;2022-12-17T07:12:27;49.17;;;44.70;;
14528;SDS011;7351;51.194;4.098;2022-12-17T07:15:15;48.43;;;43.07;;
14528;SDS011;7351;51.194;4.098;2022-12-17T07:18:00;50.70;;;45.63;;
14528;SDS011;7351;51.194;4.098;2022-12-17T07:20:46;63.43;;;50.07;;
14528;SDS011;7351;51.194;4.098;2022-12-17T07:23:31;53.27;;;47.53;;
14528;SDS011;7351;51.194;4.098;2022-12-17T07:26:16;54.17;;;47.50;;
14528;SDS011;7351;51.194;4.098;2022-12-17T07:29:01;57.63;;;49.33;;
14528;SDS011;7351;51.194;4.098;2022-12-17T07:31:47;51.93;;;45.40;;
14528;SDS011;7351;51.194;4.098;2022-12-17T07:34:31;53.43;;;47.57;;
14528;SDS011;7351;51.194;4.098;2022-12-17T07:40:19;53.03;;;47.13;;
14528;SDS011;7351;51.194;4.098;2022-12-17T07:43:08;52.37;;;46.60;;
14528;SDS011;7351;51.194;4.098;2022-12-17T07:59:06;50.50;;;45.43;;
14528;SDS011;7351;51.194;4.098;2022-12-17T08:05:01;74.07;;;53.53;;
14528;SDS011;7351;51.194;4.098;2022-12-17T08:07:46;57.30;;;48.27;;
14528;SDS011;7351;51.194;4.098;2022-12-17T08:10:30;54.73;;;48.83;;
14528;SDS011;7351;51.194;4.098;2022-12-17T08:13:16;51.70;;;45.83;;
14528;SDS011;7351;51.194;4.098;2022-12-17T08:16:00;54.47;;;49.07;;
14528;SDS011;7351;51.194;4.098;2022-12-17T08:18:45;52.77;;;47.17;;
14528;SDS011;7351;51.194;4.098;2022-12-17T08:21:30;51.93;;;46.73;;
14528;SDS011;7351;51.194;4.098;2022-12-17T08:24:14;51.60;;;46.10;;
14528;SDS011;7351;51.194;4.098;2022-12-17T08:26:58;51.80;;;46.27;;
14528;SDS011;7351;51.194;4.098;2022-12-17T08:29:44;52.13;;;46.87;;
14528;SDS011;7351;51.194;4.098;2022-12-17T08:32:28;54.07;;;48.30;;
14528;SDS011;7351;51.194;4.098;2022-12-17T08:35:12;50.93;;;45.83;;
14528;SDS011;7351;51.194;4.098;2022-12-17T08:41:01;50.50;;;45.60;;
14528;SDS011;7351;51.194;4.098;2022-12-17T08:43:46;53.23;;;47.43;;
14528;SDS011;7351;51.194;4.098;2022-12-17T08:49:56;54.43;;;47.63;;
14528;SDS011;7351;51.194;4.098;2022-12-17T08:52:41;55.37;;;47.63;;
14528;SDS011;7351;51.194;4.098;2022-12-17T08:55:25;56.43;;;48.10;;
14528;SDS011;7351;51.194;4.098;2022-12-17T08:58:10;53.80;;;47.50;;
14528;SDS011;7351;51.194;4.098;2022-12-17T09:11:03;55.57;;;48.83;;
14528;SDS011;7351;51.194;4.098;2022-12-17T09:13:47;52.50;;;47.30;;
14528;SDS011;7351;51.194;4.098;2022-12-17T09:16:32;54.47;;;48.70;;
14528;SDS011;7351;51.194;4.098;2022-12-17T09:19:16;53.60;;;48.37;;
14528;SDS011;7351;51.194;4.098;2022-12-17T09:22:00;61.90;;;50.63;;
14528;SDS011;7351;51.194;4.098;2022-12-17T09:28:08;55.83;;;49.90;;
14528;SDS011;7351;51.194;4.098;2022-12-17T09:30:56;55.03;;;49.53;;
14528;SDS011;7351;51.194;4.098;2022-12-17T09:33:41;57.13;;;51.37;;
14528;SDS011;7351;51.194;4.098;2022-12-17T09:39:49;55.23;;;50.03;;
14528;SDS011;7351;51.194;4.098;2022-12-17T09:42:36;58.70;;;52.87;;
14528;SDS011;7351;51.194;4.098;2022-12-17T09:45:28;61.30;;;54.70;;
14528;SDS011;7351;51.194;4.098;2022-12-17T09:48:21;56.07;;;50.63;;
14528;SDS011;7351;51.194;4.098;2022-12-17T09:51:18;60.07;;;53.80;;
14528;SDS011;7351;51.194;4.098;2022-12-17T09:54:05;58.67;;;52.73;;
14528;SDS011;7351;51.194;4.098;2022-12-17T09:56:58;61.97;;;53.03;;
14528;SDS011;7351;51.194;4.098;2022-12-17T09:59:43;61.93;;;55.27;;
14528;SDS011;7351;51.194;4.098;2022-12-17T10:05:49;61.97;;;54.30;;
14528;SDS011;7351;51.194;4.098;2022-12-17T10:08:35;58.87;;;53.23;;
14528;SDS011;7351;51.194;4.098;2022-12-17T10:11:21;61.73;;;55.30;;
14528;SDS011;7351;51.194;4.098;2022-12-17T10:14:10;61.03;;;54.43;;
14528;SDS011;7351;51.194;4.098;2022-12-17T10:16:58;62.17;;;55.47;;
14528;SDS011;7351;51.194;4.098;2022-12-17T10:19:42;61.33;;;54.67;;
14528;SDS011;7351;51.194;4.098;2022-12-17T10:22:29;71.80;;;56.63;;
14528;SDS011;7351;51.194;4.098;2022-12-17T10:25:34;60.03;;;53.87;;
14528;SDS011;7351;51.194;4.098;2022-12-17T10:28:20;60.77;;;54.40;;
14528;SDS011;7351;51.194;4.098;2022-12-17T10:31:06;61.93;;;55.87;;
14528;SDS011;7351;51.194;4.098;2022-12-17T10:33:53;63.53;;;57.13;;
14528;SDS011;7351;51.194;4.098;2022-12-17T10:36:43;67.07;;;60.57;;
14528;SDS011;7351;51.194;4.098;2022-12-17T10:42:52;69.10;;;62.43;;
14528;SDS011;7351;51.194;4.098;2022-12-17T10:49:02;62.93;;;56.97;;
14528;SDS011;7351;51.194;4.098;2022-12-17T10:51:47;65.30;;;58.67;;
14528;SDS011;7351;51.194;4.098;2022-12-17T10:54:32;62.13;;;56.03;;
14528;SDS011;7351;51.194;4.098;2022-12-17T10:57:25;62.03;;;55.87;;
14528;SDS011;7351;51.194;4.098;2022-12-17T11:00:20;60.23;;;53.77;;
14528;SDS011;7351;51.194;4.098;2022-12-17T11:03:18;65.37;;;59.33;;
14528;SDS011;7351;51.194;4.098;2022-12-17T11:06:11;65.10;;;57.83;;
14528;SDS011;7351;51.194;4.098;2022-12-17T11:09:13;61.80;;;55.60;;
14528;SDS011;7351;51.194;4.098;2022-12-17T11:12:18;60.23;;;54.57;;
14528;SDS011;7351;51.194;4.098;2022-12-17T11:15:10;61.70;;;55.13;;
14528;SDS011;7351;51.194;4.098;2022-12-17T11:18:18;61.73;;;56.07;;
14528;SDS011;7351;51.194;4.098;2022-12-17T11:21:06;64.30;;;57.90;;
14528;SDS011;7351;51.194;4.098;2022-12-17T11:27:07;66.77;;;60.03;;
14528;SDS011;7351;51.194;4.098;2022-12-17T11:30:06;63.73;;;57.27;;
14528;SDS011;7351;51.194;4.098;2022-12-17T11:32:57;70.13;;;63.33;;
14528;SDS011;7351;51.194;4.098;2022-12-17T11:35:52;62.87;;;56.70;;
14528;SDS011;7351;51.194;4.098;2022-12-17T11:38:55;64.43;;;57.63;;
14528;SDS011;7351;51.194;4.098;2022-12-17T11:41:45;63.97;;;57.47;;
14528;SDS011;7351;51.194;4.098;2022-12-17T11:44:43;63.83;;;57.30;;
14528;SDS011;7351;51.194;4.098;2022-12-17T11:47:55;64.20;;;57.60;;
14528;SDS011;7351;51.194;4.098;2022-12-17T11:54:06;63.17;;;56.40;;
14528;SDS011;7351;51.194;4.098;2022-12-17T11:57:15;61.33;;;54.27;;
14528;SDS011;7351;51.194;4.098;2022-12-17T12:07:59;65.57;;;58.47;;
14528;SDS011;7351;51.194;4.098;2022-12-17T12:10:56;63.57;;;57.07;;
14528;SDS011;7351;51.194;4.098;2022-12-17T12:22:34;69.00;;;62.03;;
14528;SDS011;7351;51.194;4.098;2022-12-17T12:25:26;73.87;;;65.77;;
14528;SDS011;7351;51.194;4.098;2022-12-17T12:28:21;68.17;;;61.30;;
14528;SDS011;7351;51.194;4.098;2022-12-17T12:31:33;69.90;;;62.70;;
14528;SDS011;7351;51.194;4.098;2022-12-17T12:34:26;73.00;;;65.17;;
14528;SDS011;7351;51.194;4.098;2022-12-17T12:37:16;71.57;;;64.10;;
14528;SDS011;7351;51.194;4.098;2022-12-17T12:40:03;71.80;;;63.57;;
14528;SDS011;7351;51.194;4.098;2022-12-17T12:46:35;72.00;;;64.40;;
14528;SDS011;7351;51.194;4.098;2022-12-17T12:53:18;75.07;;;67.00;;
14528;SDS011;7351;51.194;4.098;2022-12-17T12:56:03;76.67;;;68.50;;
14528;SDS011;7351;51.194;4.098;2022-12-17T12:58:48;73.93;;;66.33;;
14528;SDS011;7351;51.194;4.098;2022-12-17T13:01:35;71.27;;;63.47;;
14528;SDS011;7351;51.194;4.098;2022-12-17T13:04:30;73.70;;;66.17;;
14528;SDS011;7351;51.194;4.098;2022-12-17T13:07:22;75.73;;;67.63;;
14528;SDS011;7351;51.194;4.098;2022-12-17T13:16:39;75.03;;;63.70;;
14528;SDS011;7351;51.194;4.098;2022-12-17T13:23:15;68.60;;;61.17;;
14528;SDS011;7351;51.194;4.098;2022-12-17T13:26:09;72.80;;;65.30;;
14528;SDS011;7351;51.194;4.098;2022-12-17T13:28:41;73.17;;;65.40;;
14528;SDS011;7351;51.194;4.098;2022-12-17T13:31:14;71.93;;;64.40;;
14528;SDS011;7351;51.194;4.098;2022-12-17T13:33:46;71.13;;;63.93;;
14528;SDS011;7351;51.194;4.098;2022-12-17T13:36:18;77.07;;;68.57;;
14528;SDS011;7351;51.194;4.098;2022-12-17T13:39:28;73.90;;;63.43;;
14528;SDS011;7351;51.194;4.098;2022-12-17T13:42:01;75.17;;;63.53;;
14528;SDS011;7351;51.194;4.098;2022-12-17T13:44:30;76.63;;;68.30;;
14528;SDS011;7351;51.194;4.098;2022-12-17T13:47:04;74.20;;;65.63;;
14528;SDS011;7351;51.194;4.098;2022-12-17T13:49:52;85.43;;;75.43;;
14528;SDS011;7351;51.194;4.098;2022-12-17T13:52:22;75.13;;;67.20;;
14528;SDS011;7351;51.194;4.098;2022-12-17T13:58:19;71.63;;;64.23;;
14528;SDS011;7351;51.194;4.098;2022-12-17T14:01:02;76.67;;;65.60;;
14528;SDS011;7351;51.194;4.098;2022-12-17T14:03:30;72.33;;;64.60;;
14528;SDS011;7351;51.194;4.098;2022-12-17T14:05:59;72.73;;;65.00;;
14528;SDS011;7351;51.194;4.098;2022-12-17T14:08:27;80.03;;;67.70;;
14528;SDS011;7351;51.194;4.098;2022-12-17T14:10:58;79.90;;;66.13;;
14528;SDS011;7351;51.194;4.098;2022-12-17T14:13:40;80.90;;;68.53;;
14528;SDS011;7351;51.194;4.098;2022-12-17T14:16:08;77.83;;;65.63;;
14528;SDS011;7351;51.194;4.098;2022-12-17T14:22:07;85.07;;;68.57;;
14528;SDS011;7351;51.194;4.098;2022-12-17T14:24:37;73.07;;;62.17;;
14528;SDS011;7351;51.194;4.098;2022-12-17T14:30:24;81.80;;;67.33;;
14528;SDS011;7351;51.194;4.098;2022-12-17T14:33:01;83.93;;;66.20;;
14528;SDS011;7351;51.194;4.098;2022-12-17T14:35:29;86.43;;;67.90;;
14528;SDS011;7351;51.194;4.098;2022-12-17T14:38:01;78.13;;;67.17;;
14528;SDS011;7351;51.194;4.098;2022-12-17T14:43:16;89.30;;;72.70;;
14528;SDS011;7351;51.194;4.098;2022-12-17T14:52:35;94.73;;;73.30;;
14528;SDS011;7351;51.194;4.098;2022-12-17T14:55:28;108.50;;;80.27;;
14528;SDS011;7351;51.194;4.098;2022-12-17T14:58:07;94.57;;;73.93;;
14528;SDS011;7351;51.194;4.098;2022-12-17T15:01:07;105.97;;;80.27;;
14528;SDS011;7351;51.194;4.098;2022-12-17T15:03:41;103.80;;;75.47;;
14528;SDS011;7351;51.194;4.098;2022-12-17T15:06:12;100.33;;;79.83;;
14528;SDS011;7351;51.194;4.098;2022-12-17T15:08:43;102.40;;;79.17;;
14528;SDS011;7351;51.194;4.098;2022-12-17T15:11:14;104.77;;;78.63;;
14528;SDS011;7351;51.194;4.098;2022-12-17T15:17:29;105.67;;;74.53;;
14528;SDS011;7351;51.194;4.098;2022-12-17T15:27:44;95.50;;;73.97;;
14528;SDS011;7351;51.194;4.098;2022-12-17T15:30:12;115.00;;;83.63;;
14528;SDS011;7351;51.194;4.098;2022-12-17T15:32:40;113.60;;;81.40;;
14528;SDS011;7351;51.194;4.098;2022-12-17T15:35:08;96.37;;;74.73;;
14528;SDS011;7351;51.194;4.098;2022-12-17T15:37:38;100.27;;;71.60;;
14528;SDS011;7351;51.194;4.098;2022-12-17T15:40:06;101.63;;;72.20;;
14528;SDS011;7351;51.194;4.098;2022-12-17T15:42:36;98.80;;;75.40;;
14528;SDS011;7351;51.194;4.098;2022-12-17T15:45:22;111.57;;;77.73;;
14528;SDS011;7351;51.194;4.098;2022-12-17T15:51:17;111.60;;;76.63;;
14528;SDS011;7351;51.194;4.098;2022-12-17T15:53:45;111.77;;;76.83;;
14528;SDS011;7351;51.194;4.098;2022-12-17T15:56:16;111.90;;;79.50;;
14528;SDS011;7351;51.194;4.098;2022-12-17T15:58:45;129.30;;;84.47;;
14528;SDS011;7351;51.194;4.098;2022-12-17T16:01:14;134.70;;;85.73;;
14528;SDS011;7351;51.194;4.098;2022-12-17T16:10:29;132.83;;;83.07;;
14528;SDS011;7351;51.194;4.098;2022-12-17T16:16:22;139.00;;;74.33;;
14528;SDS011;7351;51.194;4.098;2022-12-17T16:18:50;118.73;;;73.47;;
14528;SDS011;7351;51.194;4.098;2022-12-17T16:21:17;117.83;;;70.17;;
14528;SDS011;7351;51.194;4.098;2022-12-17T16:23:45;142.20;;;78.87;;
14528;SDS011;7351;51.194;4.098;2022-12-17T16:29:16;110.07;;;70.57;;
14528;SDS011;7351;51.194;4.098;2022-12-17T16:31:45;132.47;;;72.53;;
14528;SDS011;7351;51.194;4.098;2022-12-17T16:34:14;122.70;;;67.87;;
14528;SDS011;7351;51.194;4.098;2022-12-17T16:36:41;126.80;;;68.33;;
14528;SDS011;7351;51.194;4.098;2022-12-17T16:39:11;127.90;;;71.67;;
14528;SDS011;7351;51.194;4.098;2022-12-17T16:41:41;133.50;;;72.70;;
14528;SDS011;7351;51.194;4.098;2022-12-17T16:44:09;119.83;;;70.87;;
14528;SDS011;7351;51.194;4.098;2022-12-17T16:46:37;127.80;;;76.00;;
14528;SDS011;7351;51.194;4.098;2022-12-17T16:49:07;117.40;;;77.63;;
14528;SDS011;7351;51.194;4.098;2022-12-17T16:51:36;118.73;;;72.47;;
14528;SDS011;7351;51.194;4.098;2022-12-17T17:00:52;108.07;;;63.97;;
14528;SDS011;7351;51.194;4.098;2022-12-17T17:03:19;111.97;;;69.80;;
14528;SDS011;7351;51.194;4.098;2022-12-17T17:05:47;122.80;;;71.37;;
14528;SDS011;7351;51.194;4.098;2022-12-17T17:15:06;100.17;;;63.13;;
14528;SDS011;7351;51.194;4.098;2022-12-17T17:17:34;98.00;;;64.27;;
14528;SDS011;7351;51.194;4.098;2022-12-17T17:20:01;110.23;;;70.03;;
14528;SDS011;7351;51.194;4.098;2022-12-17T17:25:52;109.33;;;65.97;;
14528;SDS011;7351;51.194;4.098;2022-12-17T17:28:19;122.37;;;68.90;;
14528;SDS011;7351;51.194;4.098;2022-12-17T17:30:46;120.47;;;68.70;;
14528;SDS011;7351;51.194;4.098;2022-12-17T17:33:13;105.77;;;67.47;;
14528;SDS011;7351;51.194;4.098;2022-12-17T17:35:42;128.90;;;61.93;;
14528;SDS011;7351;51.194;4.098;2022-12-17T17:38:08;105.53;;;65.10;;
14528;SDS011;7351;51.194;4.098;2022-12-17T17:40:35;98.10;;;64.20;;
14528;SDS011;7351;51.194;4.098;2022-12-17T17:43:04;115.53;;;64.57;;
14528;SDS011;7351;51.194;4.098;2022-12-17T17:45:32;112.47;;;64.20;;
14528;SDS011;7351;51.194;4.098;2022-12-17T17:47:59;104.47;;;61.23;;
14528;SDS011;7351;51.194;4.098;2022-12-17T17:50:26;117.37;;;68.67;;
14528;SDS011;7351;51.194;4.098;2022-12-17T17:55:40;112.50;;;58.67;;
14528;SDS011;7351;51.194;4.098;2022-12-17T17:58:09;124.07;;;64.90;;
14528;SDS011;7351;51.194;4.098;2022-12-17T18:00:36;106.80;;;69.53;;
14528;SDS011;7351;51.194;4.098;2022-12-17T18:03:03;101.23;;;63.60;;
14528;SDS011;7351;51.194;4.098;2022-12-17T18:05:30;107.20;;;64.17;;
14528;SDS011;7351;51.194;4.098;2022-12-17T18:14:13;106.97;;;61.27;;
14528;SDS011;7351;51.194;4.098;2022-12-17T18:16:39;113.17;;;66.03;;
14528;SDS011;7351;51.194;4.098;2022-12-17T18:19:08;102.63;;;64.07;;
14528;SDS011;7351;51.194;4.098;2022-12-17T18:21:37;111.83;;;64.17;;
14528;SDS011;7351;51.194;4.098;2022-12-17T18:24:05;115.57;;;66.37;;
14528;SDS011;7351;51.194;4.098;2022-12-17T18:26:33;114.07;;;66.83;;
14528;SDS011;7351;51.194;4.098;2022-12-17T18:29:06;122.20;;;64.77;;
14528;SDS011;7351;51.194;4.098;2022-12-17T18:31:36;111.70;;;67.57;;
14528;SDS011;7351;51.194;4.098;2022-12-17T18:34:03;114.53;;;70.63;;
14528;SDS011;7351;51.194;4.098;2022-12-17T18:36:32;110.53;;;69.73;;
14528;SDS011;7351;51.194;4.098;2022-12-17T18:39:03;95.33;;;66.50;;
14528;SDS011;7351;51.194;4.098;2022-12-17T18:41:32;109.03;;;65.53;;
14528;SDS011;7351;51.194;4.098;2022-12-17T18:44:17;121.03;;;64.13;;
14528;SDS011;7351;51.194;4.098;2022-12-17T18:46:46;112.57;;;69.50;;
14528;SDS011;7351;51.194;4.098;2022-12-17T18:49:14;107.87;;;66.20;;
14528;SDS011;7351;51.194;4.098;2022-12-17T18:51:42;110.07;;;58.57;;
14528;SDS011;7351;51.194;4.098;2022-12-17T18:54:12;109.50;;;63.23;;
14528;SDS011;7351;51.194;4.098;2022-12-17T18:56:40;97.97;;;62.10;;
14528;SDS011;7351;51.194;4.098;2022-12-17T18:59:09;110.30;;;59.77;;
14528;SDS011;7351;51.194;4.098;2022-12-17T19:01:38;108.20;;;67.13;;
14528;SDS011;7351;51.194;4.098;2022-12-17T19:04:08;120.10;;;69.13;;
14528;SDS011;7351;51.194;4.098;2022-12-17T19:06:36;108.67;;;68.07;;
14528;SDS011;7351;51.194;4.098;2022-12-17T19:09:04;111.63;;;65.80;;
14528;SDS011;7351;51.194;4.098;2022-12-17T19:11:33;94.87;;;61.80;;
14528;SDS011;7351;51.194;4.098;2022-12-17T19:14:01;97.17;;;59.67;;
14528;SDS011;7351;51.194;4.098;2022-12-17T19:16:28;121.37;;;62.50;;
14528;SDS011;7351;51.194;4.098;2022-12-17T19:18:55;104.73;;;61.53;;
14528;SDS011;7351;51.194;4.098;2022-12-17T19:21:25;120.13;;;59.37;;